OEFEB LOWS-LOWZ
Flight info
| Callsign | OEFEB |
|---|---|
| Flight time | 0h 26m |
| Altitude | 10000 |
| Route | SBG DCT NANIT |
| Aircraft | DA42/L-SDFGRY/C |
Departure
| Time | 2026-04-27 08:50 |
|---|---|
| Airport | Salzburg Airport (LOWS) |
Arrival
| Time | 2026-04-27 09:17 |
|---|---|
| Airport | Zell am See Airfield (LOWZ) |
| Time | Latitude | Longitude | Altitude | Speed | Heading |
|---|---|---|---|---|---|
| 2026-04-27 08:38 | 47.79546 | 12.99745 | 1414 ft | 0 kts | 336° |
| 2026-04-27 08:45 | 47.79582 | 12.99790 | 1414 ft | 10 kts | 58° |
| 2026-04-27 08:45 | 47.79551 | 12.99842 | 1414 ft | 11 kts | 149° |
| 2026-04-27 08:45 | 47.79562 | 12.99950 | 1414 ft | 13 kts | 77° |
| 2026-04-27 08:45 | 47.79491 | 13.00028 | 1415 ft | 17 kts | 154° |
| 2026-04-27 08:46 | 47.79392 | 13.00093 | 1415 ft | 11 kts | 133° |
| 2026-04-27 08:46 | 47.79385 | 13.00159 | 1415 ft | 0 kts | 62° |
| 2026-04-27 08:49 | 47.79387 | 13.00164 | 1415 ft | 4 kts | 65° |
| 2026-04-27 08:49 | 47.79415 | 13.00272 | 1417 ft | 16 kts | 60° |
| 2026-04-27 08:49 | 47.79484 | 13.00299 | 1418 ft | 8 kts | 339° |
| 2026-04-27 08:49 | 47.79512 | 13.00277 | 1417 ft | 11 kts | 338° |
| 2026-04-27 08:50 | 47.79764 | 13.00120 | 1415 ft | 67 kts | 336° |
| 2026-04-27 08:50 | 47.80279 | 12.99780 | 1563 ft | 84 kts | 334° |
| 2026-04-27 08:50 | 47.80833 | 12.99401 | 1836 ft | 94 kts | 334° |
| 2026-04-27 08:50 | 47.81445 | 12.98987 | 2172 ft | 95 kts | 343° |
| 2026-04-27 08:51 | 47.82057 | 12.98630 | 2575 ft | 97 kts | 336° |
| 2026-04-27 08:51 | 47.82713 | 12.98185 | 2860 ft | 106 kts | 338° |
| 2026-04-27 08:51 | 47.83404 | 12.97757 | 3151 ft | 109 kts | 339° |
| 2026-04-27 08:51 | 47.84113 | 12.97336 | 3491 ft | 110 kts | 338° |
| 2026-04-27 08:52 | 47.84809 | 12.96907 | 3836 ft | 110 kts | 336° |
| 2026-04-27 08:52 | 47.85324 | 12.96095 | 4199 ft | 110 kts | 289° |
| 2026-04-27 08:52 | 47.85317 | 12.94981 | 4544 ft | 111 kts | 251° |
| 2026-04-27 08:52 | 47.84849 | 12.94083 | 4928 ft | 113 kts | 224° |
| 2026-04-27 08:53 | 47.84254 | 12.93328 | 5331 ft | 111 kts | 223° |
| 2026-04-27 08:53 | 47.83667 | 12.92576 | 5695 ft | 112 kts | 224° |
| 2026-04-27 08:53 | 47.83083 | 12.91819 | 6072 ft | 111 kts | 225° |
| 2026-04-27 08:53 | 47.82501 | 12.91049 | 6449 ft | 111 kts | 225° |
| 2026-04-27 08:54 | 47.81921 | 12.90284 | 6859 ft | 111 kts | 225° |
| 2026-04-27 08:54 | 47.81339 | 12.89516 | 7159 ft | 113 kts | 226° |
| 2026-04-27 08:54 | 47.80747 | 12.88736 | 7519 ft | 113 kts | 225° |
| 2026-04-27 08:54 | 47.80162 | 12.87965 | 7852 ft | 114 kts | 226° |
| 2026-04-27 08:55 | 47.79577 | 12.87195 | 8187 ft | 114 kts | 226° |
| 2026-04-27 08:55 | 47.78984 | 12.86413 | 8530 ft | 114 kts | 226° |
| 2026-04-27 08:55 | 47.78392 | 12.85629 | 8859 ft | 116 kts | 227° |
| 2026-04-27 08:55 | 47.77787 | 12.84832 | 9133 ft | 115 kts | 226° |
| 2026-04-27 08:56 | 47.77185 | 12.84040 | 9410 ft | 116 kts | 227° |
| 2026-04-27 08:56 | 47.76580 | 12.83246 | 9689 ft | 116 kts | 227° |
| 2026-04-27 08:56 | 47.75972 | 12.82444 | 9994 ft | 119 kts | 228° |
| 2026-04-27 08:56 | 47.75297 | 12.81545 | 10016 ft | 138 kts | 227° |
| 2026-04-27 08:57 | 47.73705 | 12.79443 | 9997 ft | 163 kts | 226° |
| 2026-04-27 08:57 | 47.72833 | 12.78301 | 9990 ft | 171 kts | 225° |
| 2026-04-27 08:57 | 47.71944 | 12.77138 | 10006 ft | 170 kts | 225° |
| 2026-04-27 08:58 | 47.71049 | 12.75971 | 9988 ft | 171 kts | 225° |
| 2026-04-27 08:58 | 47.70165 | 12.74811 | 9987 ft | 168 kts | 225° |
| 2026-04-27 08:58 | 47.69296 | 12.73667 | 9983 ft | 165 kts | 225° |
| 2026-04-27 08:58 | 47.68439 | 12.72543 | 9988 ft | 164 kts | 226° |
| 2026-04-27 08:59 | 47.67588 | 12.71425 | 9983 ft | 163 kts | 225° |
| 2026-04-27 08:59 | 47.66743 | 12.70315 | 9990 ft | 163 kts | 226° |
| 2026-04-27 08:59 | 47.65885 | 12.69188 | 9991 ft | 164 kts | 225° |
| 2026-04-27 08:59 | 47.65025 | 12.68067 | 9998 ft | 165 kts | 226° |
| 2026-04-27 09:00 | 47.64157 | 12.66936 | 9996 ft | 165 kts | 225° |
| 2026-04-27 09:00 | 47.63296 | 12.65803 | 9988 ft | 167 kts | 225° |
| 2026-04-27 09:00 | 47.62422 | 12.64660 | 9976 ft | 167 kts | 225° |
| 2026-04-27 09:00 | 47.61545 | 12.63519 | 9977 ft | 167 kts | 225° |
| 2026-04-27 09:01 | 47.60677 | 12.62383 | 9973 ft | 166 kts | 225° |
| 2026-04-27 09:01 | 47.59837 | 12.61251 | 9976 ft | 157 kts | 231° |
| 2026-04-27 09:01 | 47.59117 | 12.60125 | 10033 ft | 145 kts | 238° |
| 2026-04-27 09:01 | 47.58542 | 12.58928 | 9970 ft | 146 kts | 243° |
| 2026-04-27 09:02 | 47.58090 | 12.57610 | 9972 ft | 140 kts | 253° |
| 2026-04-27 09:02 | 47.57798 | 12.56257 | 9902 ft | 138 kts | 259° |
| 2026-04-27 09:02 | 47.57480 | 12.54968 | 9939 ft | 130 kts | 251° |
| 2026-04-27 09:02 | 47.57095 | 12.53766 | 9918 ft | 130 kts | 250° |
| 2026-04-27 09:03 | 47.56677 | 12.52565 | 9915 ft | 132 kts | 247° |
| 2026-04-27 09:03 | 47.56229 | 12.51398 | 10051 ft | 127 kts | 233° |
| 2026-04-27 09:03 | 47.55731 | 12.50410 | 10173 ft | 121 kts | 235° |
| 2026-04-27 09:03 | 47.55210 | 12.49391 | 10136 ft | 121 kts | 238° |
| 2026-04-27 09:04 | 47.54735 | 12.48336 | 10176 ft | 128 kts | 237° |
| 2026-04-27 09:04 | 47.54207 | 12.47220 | 10092 ft | 137 kts | 236° |
| 2026-04-27 09:04 | 47.53668 | 12.46010 | 9960 ft | 145 kts | 236° |
| 2026-04-27 09:04 | 47.53016 | 12.44936 | 10001 ft | 142 kts | 211° |
| 2026-04-27 09:05 | 47.52110 | 12.44322 | 9973 ft | 143 kts | 203° |
| 2026-04-27 09:05 | 47.51194 | 12.43755 | 9962 ft | 143 kts | 204° |
| 2026-04-27 09:05 | 47.50304 | 12.43135 | 9958 ft | 140 kts | 206° |
| 2026-04-27 09:05 | 47.49446 | 12.42488 | 9974 ft | 140 kts | 207° |
| 2026-04-27 09:06 | 47.48580 | 12.41840 | 9975 ft | 140 kts | 207° |
| 2026-04-27 09:06 | 47.47707 | 12.41186 | 9969 ft | 140 kts | 207° |
| 2026-04-27 09:06 | 47.46844 | 12.40522 | 9970 ft | 140 kts | 207° |
| 2026-04-27 09:06 | 47.45983 | 12.39859 | 9973 ft | 140 kts | 207° |
| 2026-04-27 09:07 | 47.45118 | 12.39203 | 9969 ft | 141 kts | 207° |
| 2026-04-27 09:07 | 47.44242 | 12.38525 | 9961 ft | 142 kts | 207° |
| 2026-04-27 09:07 | 47.43389 | 12.37862 | 9967 ft | 136 kts | 208° |
| 2026-04-27 09:07 | 47.42574 | 12.37219 | 9978 ft | 135 kts | 206° |
| 2026-04-27 09:08 | 47.41713 | 12.36565 | 9967 ft | 142 kts | 205° |
| 2026-04-27 09:08 | 47.40839 | 12.35889 | 9975 ft | 141 kts | 206° |
| 2026-04-27 09:08 | 47.39953 | 12.35241 | 9976 ft | 142 kts | 199° |
| 2026-04-27 09:08 | 47.38953 | 12.35028 | 9918 ft | 155 kts | 172° |
| 2026-04-27 09:09 | 47.37890 | 12.35499 | 9742 ft | 165 kts | 157° |
| 2026-04-27 09:09 | 47.36808 | 12.36142 | 9560 ft | 169 kts | 156° |
| 2026-04-27 09:09 | 47.35693 | 12.36794 | 9356 ft | 173 kts | 158° |
| 2026-04-27 09:09 | 47.34540 | 12.37436 | 9127 ft | 182 kts | 158° |
| 2026-04-27 09:10 | 47.33764 | 12.37878 | 9047 ft | 181 kts | 158° |
| 2026-04-27 09:10 | 47.32560 | 12.38551 | 8832 ft | 188 kts | 158° |
| 2026-04-27 09:10 | 47.31362 | 12.39267 | 8650 ft | 184 kts | 152° |
| 2026-04-27 09:10 | 47.30360 | 12.40462 | 8457 ft | 185 kts | 128° |
| 2026-04-27 09:11 | 47.29763 | 12.42076 | 8461 ft | 177 kts | 105° |
| 2026-04-27 09:11 | 47.29420 | 12.43784 | 8437 ft | 171 kts | 103° |
| 2026-04-27 09:11 | 47.29102 | 12.45445 | 8382 ft | 166 kts | 103° |
| 2026-04-27 09:11 | 47.28801 | 12.47077 | 8283 ft | 164 kts | 102° |
| 2026-04-27 09:12 | 47.28499 | 12.48690 | 8234 ft | 163 kts | 103° |
| 2026-04-27 09:12 | 47.28199 | 12.50286 | 8185 ft | 161 kts | 103° |
| 2026-04-27 09:12 | 47.27907 | 12.51878 | 8168 ft | 161 kts | 102° |
| 2026-04-27 09:12 | 47.27711 | 12.53480 | 8084 ft | 158 kts | 85° |
| 2026-04-27 09:13 | 47.27770 | 12.55097 | 7949 ft | 158 kts | 82° |
| 2026-04-27 09:13 | 47.27860 | 12.56769 | 7651 ft | 171 kts | 79° |
| 2026-04-27 09:13 | 47.27995 | 12.58562 | 7281 ft | 179 kts | 79° |
| 2026-04-27 09:13 | 47.28110 | 12.60418 | 6897 ft | 183 kts | 81° |
| 2026-04-27 09:14 | 47.28189 | 12.62292 | 6512 ft | 183 kts | 87° |
| 2026-04-27 09:14 | 47.28212 | 12.64160 | 6108 ft | 183 kts | 86° |
| 2026-04-27 09:14 | 47.28268 | 12.66032 | 5666 ft | 181 kts | 82° |
| 2026-04-27 09:14 | 47.28385 | 12.67846 | 5239 ft | 174 kts | 79° |
| 2026-04-27 09:15 | 47.28423 | 12.69497 | 4835 ft | 151 kts | 89° |
| 2026-04-27 09:15 | 47.28447 | 12.71021 | 4413 ft | 146 kts | 86° |
| 2026-04-27 09:15 | 47.28519 | 12.72431 | 3980 ft | 133 kts | 80° |
| 2026-04-27 09:15 | 47.28511 | 12.73745 | 3615 ft | 124 kts | 96° |
| 2026-04-27 09:16 | 47.28471 | 12.74934 | 3408 ft | 108 kts | 91° |
| 2026-04-27 09:16 | 47.28601 | 12.75966 | 3224 ft | 97 kts | 75° |
| 2026-04-27 09:16 | 47.28771 | 12.76919 | 3044 ft | 96 kts | 79° |
| 2026-04-27 09:16 | 47.28922 | 12.77825 | 2829 ft | 88 kts | 79° |
| 2026-04-27 09:17 | 47.29086 | 12.78713 | 2552 ft | 92 kts | 75° |
| 2026-04-27 09:17 | 47.29206 | 12.79388 | 2522 ft | 26 kts | 78° |
| 2026-04-27 09:17 | 47.29213 | 12.79424 | 2521 ft | 0 kts | 31° |
| 2026-04-27 09:17 | 47.29214 | 12.79425 | 2521 ft | 0 kts | 60° |
| 2026-04-27 09:19 | 47.29216 | 12.79436 | 2521 ft | 1 kts | 122° |
| 2026-04-27 09:19 | 47.29213 | 12.79431 | 2521 ft | 5 kts | 267° |
| 2026-04-27 09:20 | 47.29212 | 12.79424 | 2521 ft | 0 kts | 257° |
| 2026-04-27 09:20 | 47.29199 | 12.79349 | 2517 ft | 22 kts | 253° |
| 2026-04-27 09:20 | 47.29118 | 12.78860 | 2521 ft | 75 kts | 255° |
| 2026-04-27 09:20 | 47.28946 | 12.78038 | 2709 ft | 88 kts | 252° |
| 2026-04-27 09:21 | 47.28845 | 12.77116 | 2781 ft | 96 kts | 287° |
| 2026-04-27 09:21 | 47.28965 | 12.76141 | 2759 ft | 96 kts | 283° |
| 2026-04-27 09:21 | 47.28907 | 12.75150 | 2734 ft | 99 kts | 268° |
| 2026-04-27 09:21 | 47.28708 | 12.74187 | 2735 ft | 97 kts | 251° |
| 2026-04-27 09:22 | 47.28525 | 12.73255 | 2780 ft | 92 kts | 270° |
| 2026-04-27 09:22 | 47.28481 | 12.72314 | 2767 ft | 94 kts | 265° |
| 2026-04-27 09:22 | 47.28450 | 12.71363 | 2783 ft | 94 kts | 278° |
| 2026-04-27 09:22 | 47.28440 | 12.70423 | 2812 ft | 92 kts | 274° |
| 2026-04-27 09:23 | 47.28317 | 12.69511 | 2824 ft | 91 kts | 239° |
| 2026-04-27 09:23 | 47.27793 | 12.69115 | 2854 ft | 88 kts | 177° |
| 2026-04-27 09:23 | 47.27387 | 12.69641 | 2864 ft | 79 kts | 84° |
| 2026-04-27 09:23 | 47.27550 | 12.69913 | 2620 ft | 0 kts | 43° |